createdAt,value
2018-08-06T00:00:07.872Z,26.70
2018-08-06T00:00:40.929Z,26.70
2018-08-06T00:01:13.965Z,26.70
2018-08-06T00:01:47.774Z,26.70
2018-08-06T00:02:21.015Z,26.60
2018-08-06T00:02:54.112Z,26.60
2018-08-06T00:03:26.772Z,26.70
2018-08-06T00:03:59.413Z,26.60
2018-08-06T00:04:33.139Z,26.60
2018-08-06T00:05:05.651Z,26.60
2018-08-06T00:05:38.155Z,26.60
2018-08-06T00:06:10.715Z,26.60
2018-08-06T00:06:43.203Z,26.60
2018-08-06T00:07:16.050Z,26.60
2018-08-06T00:07:48.572Z,26.60
2018-08-06T00:08:21.780Z,26.60
2018-08-06T00:08:54.292Z,26.60
2018-08-06T00:09:28.053Z,26.60
2018-08-06T00:10:00.627Z,26.60
2018-08-06T00:10:33.146Z,26.60
2018-08-06T00:11:05.654Z,26.60
2018-08-06T00:11:38.400Z,26.60
2018-08-06T00:12:10.904Z,26.60
2018-08-06T00:12:43.451Z,26.60
2018-08-06T00:13:15.961Z,26.50
2018-08-06T00:13:48.491Z,26.50
2018-08-06T00:14:21.820Z,26.50
2018-08-06T00:14:54.354Z,26.50
2018-08-06T00:15:26.892Z,26.50
2018-08-06T00:15:59.999Z,26.50
2018-08-06T00:16:32.522Z,26.50
2018-08-06T00:17:05.042Z,26.50
2018-08-06T00:17:38.507Z,26.50
2018-08-06T00:18:11.015Z,26.60
2018-08-06T00:18:43.553Z,26.50
2018-08-06T00:19:16.054Z,26.50
2018-08-06T00:19:49.007Z,26.50
2018-08-06T00:20:22.076Z,26.50
2018-08-06T00:20:54.659Z,26.50
2018-08-06T00:21:27.183Z,26.50
2018-08-06T00:21:59.691Z,26.50
2018-08-06T00:22:32.207Z,26.50
2018-08-06T00:23:04.716Z,26.50
2018-08-06T00:23:37.256Z,26.50
2018-08-06T00:24:09.750Z,26.40
2018-08-06T00:24:43.030Z,26.40
2018-08-06T00:25:16.290Z,26.40
2018-08-06T00:25:48.786Z,26.40
2018-08-06T00:26:21.280Z,26.40
2018-08-06T00:26:53.776Z,26.40
2018-08-06T00:27:26.296Z,26.40
2018-08-06T00:27:58.805Z,26.40
2018-08-06T00:28:31.311Z,26.30
2018-08-06T00:29:03.831Z,26.40
2018-08-06T00:29:37.193Z,26.30
2018-08-06T00:30:09.699Z,26.30
2018-08-06T00:30:43.416Z,26.30
2018-08-06T00:31:17.205Z,26.30
2018-08-06T00:31:49.802Z,26.30
2018-08-06T00:32:22.314Z,26.30
2018-08-06T00:32:54.840Z,26.30
2018-08-06T00:33:27.359Z,26.30
2018-08-06T00:34:00.336Z,26.30
2018-08-06T00:34:34.134Z,26.30
2018-08-06T00:35:07.196Z,26.30
2018-08-06T00:35:40.227Z,26.30
2018-08-06T00:36:13.264Z,26.20
2018-08-06T00:36:46.628Z,26.20
2018-08-06T00:37:20.430Z,26.20
2018-08-06T00:37:53.468Z,26.20
2018-08-06T00:38:26.536Z,26.20
2018-08-06T00:38:59.595Z,26.20
2018-08-06T00:39:32.634Z,26.20
2018-08-06T00:40:05.697Z,26.20
2018-08-06T00:40:38.740Z,26.20
2018-08-06T00:41:11.787Z,26.20
2018-08-06T00:41:44.815Z,26.20
2018-08-06T00:42:17.846Z,26.20
2018-08-06T00:42:50.880Z,26.10
2018-08-06T00:43:23.917Z,26.10
2018-08-06T00:43:56.979Z,26.10
2018-08-06T00:44:30.016Z,26.10
2018-08-06T00:45:03.058Z,26.10
2018-08-06T00:45:36.855Z,26.00
2018-08-06T00:46:10.184Z,26.00
2018-08-06T00:46:43.217Z,26.00
2018-08-06T00:47:16.257Z,26.00
2018-08-06T00:47:49.290Z,26.00
2018-08-06T00:48:22.308Z,26.00
2018-08-06T00:48:55.350Z,25.90
2018-08-06T00:49:28.380Z,25.90
2018-08-06T00:50:02.187Z,25.90
2018-08-06T00:50:35.245Z,25.80
2018-08-06T00:51:08.293Z,25.90
2018-08-06T00:51:41.352Z,25.80
2018-08-06T00:52:14.491Z,25.90
2018-08-06T00:52:47.532Z,25.90
2018-08-06T00:53:20.587Z,25.80
2018-08-06T00:53:53.632Z,25.80
2018-08-06T00:54:26.673Z,25.80
2018-08-06T00:55:00.490Z,25.80
2018-08-06T00:55:33.518Z,25.80
2018-08-06T00:56:06.556Z,25.80
2018-08-06T00:56:39.594Z,25.80
2018-08-06T00:57:13.402Z,25.70
2018-08-06T00:57:46.447Z,25.70
2018-08-06T00:58:19.480Z,25.80
2018-08-06T00:58:52.520Z,25.70
2018-08-06T00:59:26.333Z,25.80
2018-08-06T00:59:59.361Z,25.80
2018-08-06T01:00:32.419Z,25.70
2018-08-06T01:01:05.449Z,25.70
2018-08-06T01:01:38.495Z,25.70
2018-08-06T01:02:12.288Z,25.70
2018-08-06T01:02:45.334Z,25.70
2018-08-06T01:03:18.395Z,25.70
2018-08-06T01:03:51.419Z,25.70
2018-08-06T01:04:25.241Z,25.60
2018-08-06T01:04:58.262Z,25.60
2018-08-06T01:05:31.309Z,25.60
2018-08-06T01:06:04.340Z,25.70
2018-08-06T01:06:37.380Z,25.60
2018-08-06T01:07:10.921Z,25.60
2018-08-06T01:07:44.086Z,25.60
2018-08-06T01:08:17.123Z,25.60
2018-08-06T01:08:50.484Z,25.60
2018-08-06T01:09:23.532Z,25.60
2018-08-06T01:09:56.588Z,25.60
2018-08-06T01:10:30.402Z,25.50
2018-08-06T01:11:03.486Z,25.50
2018-08-06T01:11:36.533Z,25.50
2018-08-06T01:12:10.371Z,25.50
2018-08-06T01:12:43.367Z,25.50
2018-08-06T01:13:16.433Z,25.50
2018-08-06T01:13:49.859Z,25.50
2018-08-06T01:14:22.943Z,25.50
2018-08-06T01:14:55.996Z,25.50
2018-08-06T01:15:29.807Z,25.50
2018-08-06T01:16:02.884Z,25.40
2018-08-06T01:16:35.941Z,25.50
2018-08-06T01:17:09.744Z,25.50
2018-08-06T01:17:42.792Z,25.50
2018-08-06T01:18:15.836Z,25.50
2018-08-06T01:18:48.846Z,25.40
2018-08-06T01:19:22.669Z,25.50
2018-08-06T01:19:55.693Z,25.40
2018-08-06T01:20:28.936Z,25.50
2018-08-06T01:21:01.979Z,25.40
2018-08-06T01:21:35.024Z,25.50
2018-08-06T01:22:08.057Z,25.40
2018-08-06T01:22:41.082Z,25.40
2018-08-06T01:23:14.108Z,25.40
2018-08-06T01:23:47.133Z,25.40
2018-08-06T01:24:20.448Z,25.40
2018-08-06T01:24:53.714Z,25.40
2018-08-06T01:25:27.503Z,25.40
2018-08-06T01:26:01.297Z,25.30
2018-08-06T01:26:36.058Z,25.40
2018-08-06T01:27:09.099Z,25.40
2018-08-06T01:27:42.126Z,25.40
2018-08-06T01:28:15.304Z,25.40
2018-08-06T01:28:48.331Z,25.40
2018-08-06T01:29:21.392Z,25.30
2018-08-06T01:29:54.444Z,25.40
2018-08-06T01:30:27.495Z,25.40
2018-08-06T01:31:00.522Z,25.40
2018-08-06T01:31:34.578Z,25.40
2018-08-06T01:32:07.815Z,25.40
2018-08-06T01:32:40.858Z,25.40
2018-08-06T01:33:13.888Z,25.40
2018-08-06T01:33:46.915Z,25.40
2018-08-06T01:34:20.164Z,25.30
2018-08-06T01:34:53.216Z,25.40
2018-08-06T01:35:26.270Z,25.30
2018-08-06T01:35:59.435Z,25.30
2018-08-06T01:36:32.458Z,25.40
2018-08-06T01:37:05.499Z,25.40
2018-08-06T01:37:38.528Z,25.40
2018-08-06T01:38:11.571Z,25.40
2018-08-06T01:38:45.478Z,25.40
2018-08-06T01:39:18.503Z,25.40
2018-08-06T01:39:51.667Z,25.40
2018-08-06T01:40:24.703Z,25.40
2018-08-06T01:40:57.836Z,25.40
2018-08-06T01:41:30.864Z,25.40
2018-08-06T01:42:03.898Z,25.40
2018-08-06T01:42:36.962Z,25.40
2018-08-06T01:43:09.995Z,25.40
2018-08-06T01:43:43.031Z,25.40
2018-08-06T01:44:16.086Z,25.40
2018-08-06T01:44:49.120Z,25.50
2018-08-06T01:45:22.286Z,25.40
2018-08-06T01:45:55.328Z,25.50
2018-08-06T01:46:28.356Z,25.40
2018-08-06T01:47:02.231Z,25.40
2018-08-06T01:47:35.506Z,25.40
2018-08-06T01:48:08.504Z,25.40
2018-08-06T01:48:42.306Z,25.40
2018-08-06T01:49:16.104Z,25.50
2018-08-06T01:49:49.353Z,25.40
2018-08-06T01:50:22.404Z,25.40
2018-08-06T01:50:55.432Z,25.40
2018-08-06T01:51:29.216Z,25.40
2018-08-06T01:52:03.042Z,25.40
2018-08-06T01:52:36.068Z,25.40
2018-08-06T01:53:09.105Z,25.40
2018-08-06T01:53:42.356Z,25.40
2018-08-06T01:54:15.385Z,25.40
2018-08-06T01:54:48.458Z,25.40
2018-08-06T01:55:21.483Z,25.40
2018-08-06T01:55:54.558Z,25.40
2018-08-06T01:56:27.592Z,25.40
2018-08-06T01:57:00.633Z,25.30
2018-08-06T01:57:33.871Z,25.40
2018-08-06T01:58:07.685Z,25.30
2018-08-06T01:58:40.726Z,25.30
2018-08-06T01:59:13.758Z,25.40
2018-08-06T01:59:46.808Z,25.30
2018-08-06T02:00:19.848Z,25.30
2018-08-06T02:00:53.111Z,25.30
2018-08-06T02:01:26.156Z,25.30
2018-08-06T02:01:59.948Z,25.40
2018-08-06T02:02:32.979Z,25.30
2018-08-06T02:03:06.796Z,25.40
2018-08-06T02:03:39.815Z,25.30
2018-08-06T02:04:12.856Z,25.40
2018-08-06T02:04:45.915Z,25.40
2018-08-06T02:05:18.973Z,25.40
2018-08-06T02:05:52.779Z,25.30
2018-08-06T02:06:25.816Z,25.30
2018-08-06T02:06:58.869Z,25.30
2018-08-06T02:07:31.911Z,25.40
2018-08-06T02:08:04.972Z,25.30
2018-08-06T02:08:38.008Z,25.30
2018-08-06T02:09:11.120Z,25.30
2018-08-06T02:09:44.143Z,25.30
2018-08-06T02:10:17.185Z,25.30
2018-08-06T02:10:50.236Z,25.30
2018-08-06T02:11:24.037Z,25.40
2018-08-06T02:11:57.845Z,25.30
2018-08-06T02:12:30.876Z,25.40
2018-08-06T02:13:03.916Z,25.30
2018-08-06T02:13:36.960Z,25.30
2018-08-06T02:14:10.004Z,25.40
2018-08-06T02:14:43.040Z,25.30
2018-08-06T02:15:16.303Z,25.30
2018-08-06T02:15:49.343Z,25.30
2018-08-06T02:16:23.151Z,25.30
2018-08-06T02:16:56.415Z,25.30
2018-08-06T02:17:30.220Z,25.30
2018-08-06T02:18:05.040Z,25.30
2018-08-06T02:18:38.846Z,25.30
2018-08-06T02:19:11.901Z,25.30
2018-08-06T02:19:44.952Z,25.30
2018-08-06T02:20:17.983Z,25.30
2018-08-06T02:20:51.036Z,25.20
2018-08-06T02:21:24.830Z,25.20
2018-08-06T02:21:57.873Z,25.20
2018-08-06T02:22:30.898Z,25.30
2018-08-06T02:23:03.931Z,25.30
2018-08-06T02:23:36.959Z,25.20
2018-08-06T02:24:10.013Z,25.30
2018-08-06T02:24:43.028Z,25.20
2018-08-06T02:25:16.088Z,25.20
2018-08-06T02:25:49.136Z,25.20
2018-08-06T02:26:22.156Z,25.30
2018-08-06T02:26:55.201Z,25.30
2018-08-06T02:27:28.242Z,25.20
2018-08-06T02:28:01.260Z,25.30
2018-08-06T02:28:35.068Z,25.20
2018-08-06T02:29:08.103Z,25.20
2018-08-06T02:29:41.142Z,25.30
2018-08-06T02:30:14.401Z,25.20
2018-08-06T02:30:47.448Z,25.20
2018-08-06T02:31:21.412Z,25.20
2018-08-06T02:31:55.213Z,25.20
2018-08-06T02:32:28.251Z,25.20
2018-08-06T02:33:02.037Z,25.20
2018-08-06T02:33:35.106Z,25.20
2018-08-06T02:34:08.158Z,25.20
2018-08-06T02:34:41.416Z,25.20
2018-08-06T02:35:14.576Z,25.20
2018-08-06T02:35:47.604Z,25.20
2018-08-06T02:36:20.639Z,25.20
2018-08-06T02:36:53.667Z,25.20
2018-08-06T02:37:27.479Z,25.20
2018-08-06T02:38:01.287Z,25.20
2018-08-06T02:38:34.327Z,25.20
2018-08-06T02:39:08.871Z,25.20
2018-08-06T02:39:42.664Z,25.20
2018-08-06T02:40:15.751Z,25.10
2018-08-06T02:40:48.792Z,25.20
2018-08-06T02:41:22.594Z,25.20
2018-08-06T02:41:55.634Z,25.20
2018-08-06T02:42:28.676Z,25.20
2018-08-06T02:43:01.706Z,25.20
2018-08-06T02:43:34.920Z,25.20
2018-08-06T02:44:07.959Z,25.20
2018-08-06T02:44:40.993Z,25.20
2018-08-06T02:45:14.025Z,25.10
2018-08-06T02:45:47.077Z,25.20
2018-08-06T02:46:20.112Z,25.10
2018-08-06T02:46:53.138Z,25.20
2018-08-06T02:47:26.184Z,25.20
2018-08-06T02:47:59.215Z,25.20
2018-08-06T02:48:32.247Z,25.20
2018-08-06T02:49:05.286Z,25.20
2018-08-06T02:49:38.315Z,25.20
2018-08-06T02:50:11.356Z,25.20
2018-08-06T02:50:44.408Z,25.20
2018-08-06T02:51:17.563Z,25.20
2018-08-06T02:51:50.594Z,25.10
2018-08-06T02:52:23.615Z,25.10
2018-08-06T02:52:56.644Z,25.10
2018-08-06T02:53:29.677Z,25.10
2018-08-06T02:54:02.697Z,25.10
2018-08-06T02:54:35.743Z,25.10
2018-08-06T02:55:08.791Z,25.10
2018-08-06T02:55:41.846Z,25.10
2018-08-06T02:56:15.643Z,25.10
2018-08-06T02:56:48.683Z,25.10
2018-08-06T02:57:22.484Z,25.10
2018-08-06T02:57:55.526Z,25.10
2018-08-06T02:58:28.572Z,25.10
2018-08-06T02:59:01.623Z,25.10
2018-08-06T02:59:35.442Z,25.10
2018-08-06T03:00:08.637Z,25.10
2018-08-06T03:00:41.665Z,25.10
2018-08-06T03:01:14.702Z,25.10
2018-08-06T03:01:47.738Z,25.10
2018-08-06T03:02:20.764Z,25.10
2018-08-06T03:02:53.819Z,25.10
2018-08-06T03:03:26.851Z,25.00
2018-08-06T03:04:00.669Z,25.10
2018-08-06T03:04:33.709Z,25.10
2018-08-06T03:05:07.499Z,25.10
2018-08-06T03:05:40.557Z,25.10
2018-08-06T03:06:13.604Z,25.10
2018-08-06T03:06:46.655Z,25.10
2018-08-06T03:07:19.693Z,25.10
2018-08-06T03:07:53.496Z,25.10
2018-08-06T03:08:27.281Z,25.10
2018-08-06T03:09:00.307Z,25.10
2018-08-06T03:09:33.336Z,25.10
2018-08-06T03:10:07.162Z,25.00
2018-08-06T03:10:40.180Z,25.00
2018-08-06T03:11:13.219Z,25.00
2018-08-06T03:11:46.240Z,25.00
2018-08-06T03:12:19.264Z,25.00
2018-08-06T03:12:52.296Z,25.00
2018-08-06T03:13:26.091Z,25.00
2018-08-06T03:13:59.117Z,25.00
2018-08-06T03:14:32.152Z,25.00
2018-08-06T03:15:05.188Z,24.90
2018-08-06T03:15:39.008Z,25.00
2018-08-06T03:16:12.029Z,25.00
2018-08-06T03:16:45.077Z,24.90
2018-08-06T03:17:18.096Z,24.90
2018-08-06T03:17:51.122Z,25.00
2018-08-06T03:18:24.300Z,25.00
2018-08-06T03:18:57.331Z,25.00
2018-08-06T03:19:30.448Z,24.90
2018-08-06T03:20:03.472Z,24.90
2018-08-06T03:20:36.503Z,24.90
2018-08-06T03:21:09.644Z,24.90
2018-08-06T03:21:42.681Z,24.90
2018-08-06T03:22:15.710Z,25.00
2018-08-06T03:22:49.504Z,25.00
2018-08-06T03:23:23.288Z,24.90
2018-08-06T03:23:56.320Z,24.90
2018-08-06T03:24:29.343Z,24.90
2018-08-06T03:25:03.140Z,24.90
2018-08-06T03:25:36.946Z,24.90
2018-08-06T03:26:09.990Z,24.90
2018-08-06T03:26:43.797Z,24.90
2018-08-06T03:27:16.844Z,24.90
2018-08-06T03:27:49.879Z,24.90
2018-08-06T03:28:22.908Z,24.80
2018-08-06T03:28:55.936Z,24.80
2018-08-06T03:29:28.976Z,24.90
2018-08-06T03:30:02.004Z,24.80
2018-08-06T03:30:35.057Z,24.80
2018-08-06T03:31:08.090Z,24.90
2018-08-06T03:31:41.133Z,24.80
2018-08-06T03:32:14.164Z,24.80
2018-08-06T03:32:47.204Z,24.80
2018-08-06T03:33:20.244Z,24.80
2018-08-06T03:33:53.300Z,24.80
2018-08-06T03:34:26.324Z,24.80
2018-08-06T03:34:59.359Z,24.90
2018-08-06T03:35:32.409Z,24.80
2018-08-06T03:36:05.550Z,24.80
2018-08-06T03:36:39.344Z,24.80
2018-08-06T03:37:12.369Z,24.80
2018-08-06T03:37:45.406Z,24.80
2018-08-06T03:38:18.436Z,24.80
2018-08-06T03:38:51.472Z,24.80
2018-08-06T03:39:24.492Z,24.80
2018-08-06T03:39:57.529Z,24.80
2018-08-06T03:40:30.569Z,24.80
2018-08-06T03:41:03.616Z,24.80
2018-08-06T03:41:36.665Z,24.80
2018-08-06T03:42:09.924Z,24.70
2018-08-06T03:42:42.976Z,24.70
2018-08-06T03:43:15.999Z,24.70
2018-08-06T03:43:49.056Z,25.20
2018-08-06T03:44:22.088Z,24.70
2018-08-06T03:44:55.231Z,24.70
2018-08-06T03:45:31.044Z,24.70
2018-08-06T03:46:04.084Z,24.70
2018-08-06T03:46:37.126Z,24.70
2018-08-06T03:47:10.158Z,24.70
2018-08-06T03:47:43.190Z,24.70
2018-08-06T03:48:16.229Z,24.70
2018-08-06T03:48:49.259Z,24.70
2018-08-06T03:49:22.291Z,24.70
2018-08-06T03:49:55.310Z,24.70
2018-08-06T03:50:28.366Z,24.70
2018-08-06T03:51:01.708Z,24.70
2018-08-06T03:51:35.647Z,24.70
2018-08-06T03:52:08.696Z,24.70
2018-08-06T03:52:41.749Z,24.70
2018-08-06T03:53:14.788Z,24.70
2018-08-06T03:53:47.817Z,24.70
2018-08-06T03:54:20.863Z,24.70
2018-08-06T03:54:54.341Z,24.70
2018-08-06T03:55:28.148Z,24.70
2018-08-06T03:56:01.624Z,24.70
2018-08-06T03:56:34.663Z,24.70
2018-08-06T03:57:07.689Z,24.70
2018-08-06T03:57:40.721Z,24.70
2018-08-06T03:58:13.839Z,24.70
2018-08-06T03:58:46.859Z,24.70
2018-08-06T03:59:20.659Z,24.70
2018-08-06T03:59:53.695Z,24.60
2018-08-06T04:00:26.745Z,24.70
2018-08-06T04:01:00.535Z,24.70
2018-08-06T04:01:33.587Z,24.70
2018-08-06T04:02:06.617Z,24.70
2018-08-06T04:02:39.650Z,24.70
2018-08-06T04:03:12.679Z,24.70
2018-08-06T04:03:45.733Z,24.70
2018-08-06T04:04:18.747Z,24.70
2018-08-06T04:04:51.792Z,24.60
2018-08-06T04:05:24.824Z,24.60
2018-08-06T04:05:58.640Z,24.70
2018-08-06T04:06:31.871Z,24.60
2018-08-06T04:07:04.924Z,24.60
2018-08-06T04:07:37.967Z,24.60
2018-08-06T04:08:11.021Z,24.60
2018-08-06T04:08:44.821Z,24.60
2018-08-06T04:09:17.880Z,24.60
2018-08-06T04:09:50.919Z,24.60
2018-08-06T04:10:23.944Z,24.60
2018-08-06T04:10:56.967Z,24.70
2018-08-06T04:11:29.995Z,24.60
2018-08-06T04:12:03.048Z,24.60
2018-08-06T04:12:36.102Z,24.60
2018-08-06T04:13:09.147Z,24.60
2018-08-06T04:13:42.191Z,24.50
2018-08-06T04:14:15.987Z,24.50
2018-08-06T04:14:49.020Z,24.50
2018-08-06T04:15:22.082Z,24.60
2018-08-06T04:15:55.120Z,24.60
2018-08-06T04:16:28.162Z,24.50
2018-08-06T04:17:01.205Z,24.50
2018-08-06T04:17:34.232Z,24.50
2018-08-06T04:18:07.255Z,24.50
2018-08-06T04:18:40.278Z,24.50
2018-08-06T04:19:13.321Z,24.50
2018-08-06T04:19:46.416Z,24.50
2018-08-06T04:20:19.387Z,24.50
2018-08-06T04:20:53.688Z,24.40
2018-08-06T04:21:27.912Z,24.40
2018-08-06T04:22:01.722Z,24.40
2018-08-06T04:22:34.790Z,24.40
2018-08-06T04:23:07.822Z,24.50
2018-08-06T04:23:40.863Z,24.40
2018-08-06T04:24:13.896Z,24.40
2018-08-06T04:24:46.932Z,24.40
2018-08-06T04:25:19.983Z,24.40
2018-08-06T04:25:53.005Z,24.40
2018-08-06T04:26:26.808Z,24.40
2018-08-06T04:26:59.876Z,24.40
2018-08-06T04:27:32.914Z,24.40
2018-08-06T04:28:05.939Z,24.40
2018-08-06T04:28:38.973Z,24.40
2018-08-06T04:29:12.007Z,24.30
2018-08-06T04:29:45.031Z,24.30
2018-08-06T04:30:18.060Z,24.30
2018-08-06T04:30:51.825Z,24.30
2018-08-06T04:31:27.607Z,24.30
2018-08-06T05:51:06.014Z,24.60
2018-08-06T05:51:42.597Z,24.60
2018-08-06T05:52:17.937Z,24.60
2018-08-06T06:07:36.967Z,24.90
2018-08-06T06:55:52.599Z,26.70
2018-08-06T06:56:29.449Z,26.70
2018-08-06T06:57:42.177Z,26.70
2018-08-06T06:58:15.235Z,26.70
2018-08-06T06:58:48.297Z,26.70
2018-08-06T06:59:21.353Z,26.80
2018-08-06T06:59:54.437Z,26.80
2018-08-06T07:00:28.386Z,26.90
2018-08-06T07:01:01.437Z,26.90
2018-08-06T07:01:34.503Z,26.90
2018-08-06T07:02:07.589Z,26.90
2018-08-06T07:02:41.513Z,27.00
2018-08-06T07:03:14.582Z,27.00
2018-08-06T07:03:55.937Z,27.10
2018-08-06T07:04:28.991Z,27.10
2018-08-06T07:05:02.910Z,27.10
2018-08-06T07:05:36.738Z,27.20
2018-08-06T07:06:09.816Z,27.20
2018-08-06T07:06:42.432Z,27.20
2018-08-06T07:07:15.714Z,27.20
2018-08-06T07:07:49.003Z,27.30
2018-08-06T07:08:21.530Z,27.30
2018-08-06T07:08:54.049Z,27.30
2018-08-06T07:09:26.585Z,27.30
2018-08-06T07:09:59.123Z,27.40
2018-08-06T07:10:31.667Z,27.40
2018-08-06T07:11:04.234Z,27.40
2018-08-06T07:12:40.716Z,27.40
2018-08-06T07:13:13.289Z,27.40
2018-08-06T07:13:46.636Z,27.50
2018-08-06T07:14:19.164Z,27.50
2018-08-06T07:14:52.148Z,27.50
2018-08-06T07:15:24.750Z,27.50
2018-08-06T07:15:57.730Z,27.50
2018-08-06T07:16:30.781Z,27.60
2018-08-06T07:17:03.824Z,27.60
2018-08-06T07:17:37.749Z,27.60
2018-08-06T07:18:10.781Z,27.60
2018-08-06T07:18:43.833Z,27.60
2018-08-06T07:19:16.905Z,27.70
2018-08-06T07:19:49.978Z,27.70
2018-08-06T07:20:23.052Z,27.70
2018-08-06T07:20:56.065Z,27.80
2018-08-06T07:21:29.428Z,27.90
2018-08-06T07:22:02.725Z,27.90
2018-08-06T07:22:35.696Z,27.90
2018-08-06T07:23:09.515Z,28.00
2018-08-06T07:23:43.333Z,27.90
2018-08-06T07:24:16.380Z,28.00
2018-08-06T07:24:49.577Z,28.00
2018-08-06T07:25:22.620Z,28.10
2018-08-06T07:25:55.771Z,28.10
2018-08-06T07:26:28.763Z,28.10
2018-08-06T07:27:02.572Z,28.20
2018-08-06T07:27:35.592Z,28.10
2018-08-06T07:28:08.628Z,28.20
2018-08-06T07:28:41.683Z,28.20
2018-08-06T07:29:15.483Z,28.30
2018-08-06T07:29:48.517Z,28.30
2018-08-06T07:30:21.559Z,28.40
2018-08-06T07:30:54.596Z,28.40
2018-08-06T07:31:27.636Z,28.40
2018-08-06T07:32:00.671Z,28.40
2018-08-06T07:32:33.699Z,28.50
2018-08-06T07:33:06.738Z,28.50
2018-08-06T07:33:39.814Z,28.60
2018-08-06T07:34:12.838Z,28.60
2018-08-06T07:34:46.632Z,28.70
2018-08-06T07:35:20.428Z,28.70
2018-08-06T07:35:54.231Z,28.70
2018-08-06T07:36:27.260Z,28.70
2018-08-06T07:37:01.803Z,28.80
2018-08-06T07:37:35.616Z,28.80
2018-08-06T07:38:08.639Z,28.80
2018-08-06T07:38:41.668Z,28.80
2018-08-06T07:39:14.738Z,28.90
2018-08-06T07:39:47.777Z,28.90
2018-08-06T07:40:20.808Z,28.90
2018-08-06T07:40:53.885Z,29.00
2018-08-06T07:41:26.916Z,29.00
2018-08-06T07:41:59.952Z,29.00
2018-08-06T07:42:32.996Z,29.00
2018-08-06T07:43:06.052Z,29.00
2018-08-06T07:43:39.087Z,29.00
2018-08-06T07:44:12.130Z,29.00
2018-08-06T07:44:45.160Z,29.10
2018-08-06T07:45:18.963Z,29.10
2018-08-06T07:45:51.992Z,29.10
2018-08-06T07:46:25.049Z,29.10
2018-08-06T07:46:58.149Z,29.20
2018-08-06T07:47:31.150Z,29.20
2018-08-06T07:48:04.960Z,29.30
2018-08-06T07:48:38.745Z,29.30
2018-08-06T07:49:12.576Z,29.40
2018-08-06T07:49:45.651Z,29.40
2018-08-06T07:50:18.639Z,29.50
2018-08-06T07:50:51.722Z,29.50
2018-08-06T07:51:24.727Z,29.40
2018-08-06T07:51:58.523Z,29.50
2018-08-06T07:52:31.664Z,29.50
2018-08-06T07:53:04.704Z,29.50
2018-08-06T07:53:37.729Z,29.60
2018-08-06T07:54:11.369Z,29.60
2018-08-06T07:54:44.411Z,29.70
2018-08-06T07:55:18.207Z,29.70
2018-08-06T07:55:51.268Z,29.70
2018-08-06T07:56:24.304Z,29.80
2018-08-06T07:56:57.350Z,29.80
2018-08-06T07:57:31.141Z,29.90
2018-08-06T07:58:04.181Z,29.90
2018-08-06T07:58:37.219Z,29.90
2018-08-06T07:59:10.290Z,29.90
2018-08-06T07:59:43.315Z,30.00
2018-08-06T08:00:17.112Z,30.00
2018-08-06T08:00:51.193Z,30.10
2018-08-06T08:01:24.231Z,30.00
2018-08-06T08:01:57.274Z,30.10
2018-08-06T08:02:30.316Z,30.00
2018-08-06T08:03:03.356Z,30.00
2018-08-06T08:03:36.400Z,30.10
2018-08-06T08:04:09.454Z,30.10
2018-08-06T08:04:42.504Z,30.10
2018-08-06T08:05:15.552Z,30.20
2018-08-06T08:05:48.575Z,30.20
2018-08-06T08:06:21.619Z,30.30
2018-08-06T08:06:54.677Z,30.40
2018-08-06T08:07:27.744Z,30.40
2018-08-06T08:08:00.797Z,30.40
2018-08-06T08:08:34.063Z,30.50
2018-08-06T08:09:07.118Z,30.50
2018-08-06T08:09:40.168Z,30.50
2018-08-06T08:10:13.229Z,30.60
2018-08-06T08:10:46.277Z,30.60
2018-08-06T08:11:20.085Z,30.70
2018-08-06T08:11:53.141Z,30.60
2018-08-06T08:12:26.172Z,30.70
2018-08-06T08:12:59.244Z,30.60
2018-08-06T08:13:32.300Z,30.60
2018-08-06T08:14:05.343Z,30.60
2018-08-06T08:14:39.148Z,30.70
2018-08-06T08:15:12.184Z,30.60
2018-08-06T08:15:45.215Z,30.70
2018-08-06T08:16:18.272Z,30.70
2018-08-06T08:16:51.312Z,30.70
2018-08-06T08:17:25.116Z,30.80
2018-08-06T08:17:58.160Z,30.80
2018-08-06T08:18:31.209Z,30.80
2018-08-06T08:19:04.240Z,30.90
2018-08-06T08:19:37.340Z,30.90
2018-08-06T08:20:10.437Z,30.90
2018-08-06T08:20:43.344Z,30.90
2018-08-06T08:21:16.378Z,30.90
2018-08-06T08:21:49.412Z,30.90
2018-08-06T08:22:23.214Z,30.90
2018-08-06T08:22:57.967Z,30.90
2018-08-06T08:23:30.965Z,30.90
2018-08-06T08:24:04.027Z,30.90
2018-08-06T08:24:37.072Z,30.90
2018-08-06T08:25:10.121Z,31.00
2018-08-06T08:25:43.935Z,31.00
2018-08-06T08:26:16.988Z,31.00
2018-08-06T08:26:50.036Z,31.00
2018-08-06T08:27:23.086Z,31.00
2018-08-06T08:27:56.152Z,31.00
2018-08-06T08:28:29.194Z,31.00
2018-08-06T08:29:03.004Z,31.10
2018-08-06T08:29:36.072Z,31.10
2018-08-06T08:30:09.110Z,31.10
2018-08-06T08:30:42.150Z,31.20
2018-08-06T08:31:15.180Z,31.20
2018-08-06T08:31:48.224Z,31.20
2018-08-06T08:32:21.753Z,31.20
2018-08-06T08:32:54.795Z,31.20
2018-08-06T08:33:27.849Z,31.30
2018-08-06T08:34:00.921Z,31.40
2018-08-06T08:34:33.952Z,31.40
2018-08-06T08:35:06.989Z,31.30
2018-08-06T08:35:40.042Z,31.30
2018-08-06T08:36:13.328Z,31.40
2018-08-06T08:36:47.007Z,31.50
2018-08-06T08:37:20.052Z,31.50
2018-08-06T08:37:53.106Z,31.50
2018-08-06T08:38:26.143Z,31.50
2018-08-06T08:38:59.205Z,31.50
2018-08-06T08:39:32.306Z,31.60
2018-08-06T08:40:05.347Z,31.60
2018-08-06T08:40:38.382Z,31.60
2018-08-06T08:41:12.197Z,31.60
2018-08-06T08:41:45.239Z,31.60
2018-08-06T08:42:19.045Z,31.70
2018-08-06T08:42:52.876Z,31.70
2018-08-06T08:43:25.916Z,31.70
2018-08-06T08:43:58.958Z,31.70
2018-08-06T08:44:32.025Z,31.60
2018-08-06T08:45:05.090Z,31.70
2018-08-06T08:45:38.273Z,31.60
2018-08-06T08:46:11.180Z,31.80
2018-08-06T08:46:44.233Z,31.70
2018-08-06T08:47:17.281Z,31.70
2018-08-06T08:47:50.351Z,31.80
2018-08-06T08:48:23.430Z,31.90
2018-08-06T08:48:56.477Z,32.00
2018-08-06T08:49:29.527Z,32.10
2018-08-06T08:50:03.974Z,32.10
2018-08-06T08:50:36.999Z,32.10
2018-08-06T08:51:10.081Z,32.20
2018-08-06T08:51:43.924Z,32.20
2018-08-06T08:52:16.974Z,32.20
2018-08-06T08:52:50.033Z,32.30
2018-08-06T08:53:23.837Z,32.20
2018-08-06T08:53:56.877Z,32.20
2018-08-06T08:54:29.927Z,32.30
2018-08-06T08:55:02.979Z,32.30
2018-08-06T08:55:36.020Z,32.30
2018-08-06T08:56:09.168Z,32.30
2018-08-06T08:56:42.220Z,32.20
2018-08-06T08:57:15.274Z,32.20
2018-08-06T08:57:49.101Z,32.20
2018-08-06T08:58:22.158Z,32.20
2018-08-06T08:58:55.322Z,32.20
2018-08-06T08:59:28.268Z,32.20
2018-08-06T09:00:01.419Z,32.30
2018-08-06T09:00:34.523Z,32.30
2018-08-06T09:01:08.335Z,32.30
2018-08-06T09:01:41.391Z,32.30
2018-08-06T09:02:15.206Z,32.40
2018-08-06T09:02:48.260Z,32.40
2018-08-06T09:03:22.273Z,32.50
2018-08-06T09:03:55.524Z,32.50
2018-08-06T09:04:28.588Z,32.50
2018-08-06T09:05:01.636Z,32.50
2018-08-06T09:05:34.683Z,32.60
2018-08-06T09:06:07.732Z,32.60
2018-08-06T09:06:41.559Z,32.70
2018-08-06T09:07:14.654Z,32.70
2018-08-06T09:07:48.428Z,32.80
2018-08-06T09:08:21.475Z,32.70
2018-08-06T09:08:54.519Z,32.80
2018-08-06T09:09:27.693Z,32.80
2018-08-06T09:10:00.743Z,32.80
2018-08-06T09:10:33.790Z,32.80
2018-08-06T09:11:06.827Z,32.80
2018-08-06T09:11:39.889Z,32.90
2018-08-06T09:12:12.934Z,32.90
2018-08-06T09:12:45.980Z,32.90
2018-08-06T09:13:19.027Z,32.80
2018-08-06T09:13:52.074Z,32.90
2018-08-06T09:14:25.119Z,32.90
2018-08-06T09:14:58.160Z,33.10
2018-08-06T09:15:31.961Z,33.10
2018-08-06T09:16:05.783Z,33.00
2018-08-06T09:16:38.832Z,33.00
2018-08-06T09:17:11.888Z,33.00
2018-08-06T09:17:45.700Z,32.90
2018-08-06T09:18:19.538Z,33.00
2018-08-06T09:18:52.596Z,32.90
2018-08-06T09:19:25.636Z,32.90
2018-08-06T09:19:59.472Z,33.00
2018-08-06T09:20:32.697Z,33.00
2018-08-06T09:21:05.871Z,33.10
2018-08-06T09:21:38.900Z,33.20
2018-08-06T09:22:11.957Z,33.30
2018-08-06T09:22:45.017Z,33.30
2018-08-06T09:23:18.832Z,33.30
2018-08-06T09:23:51.877Z,33.30
2018-08-06T09:24:25.680Z,33.30
2018-08-06T09:24:58.751Z,33.30
2018-08-06T09:25:31.823Z,33.40
2018-08-06T09:26:05.641Z,33.40
2018-08-06T09:26:38.728Z,33.40
2018-08-06T09:27:11.734Z,33.50
2018-08-06T09:27:44.779Z,33.50
2018-08-06T09:28:17.843Z,33.40
2018-08-06T09:28:50.898Z,33.50
2018-08-06T09:29:24.717Z,33.60
2018-08-06T09:29:58.520Z,33.60
2018-08-06T09:30:31.586Z,33.60